createdAt,value
2023-03-21T00:01:17.147Z,3.44
2023-03-21T00:04:50.799Z,3.40
2023-03-21T00:08:15.848Z,3.42
2023-03-21T00:11:37.769Z,3.43
2023-03-21T00:15:06.200Z,3.40
2023-03-21T00:18:28.848Z,3.42
2023-03-21T00:22:06.491Z,3.42
2023-03-21T00:25:30.154Z,3.41
2023-03-21T00:28:52.266Z,3.40
2023-03-21T00:32:14.202Z,3.38
2023-03-21T00:35:57.886Z,3.35
2023-03-21T00:39:17.427Z,3.35
2023-03-21T00:42:40.721Z,3.32
2023-03-21T00:46:03.114Z,3.27
2023-03-21T00:49:25.322Z,3.27
2023-03-21T00:52:47.278Z,3.25
2023-03-21T00:56:10.081Z,3.24
2023-03-21T00:59:33.632Z,3.22
2023-03-21T01:03:04.420Z,3.17
2023-03-21T01:06:30.542Z,3.17
2023-03-21T01:09:52.574Z,3.16
2023-03-21T01:13:16.626Z,3.12
2023-03-21T01:16:40.274Z,3.15
2023-03-21T01:20:01.846Z,2.97
2023-03-21T01:23:27.372Z,3.14
2023-03-21T01:26:49.221Z,3.11
2023-03-21T01:30:20.264Z,3.16
2023-03-21T01:33:46.319Z,3.12
2023-03-21T01:37:08.367Z,3.10
2023-03-21T01:40:31.720Z,3.16
2023-03-21T01:43:53.799Z,3.19
2023-03-21T01:47:15.558Z,3.05
2023-03-21T01:50:40.074Z,3.11
2023-03-21T01:54:02.437Z,3.11
2023-03-21T01:57:41.025Z,3.11
2023-03-21T02:01:06.637Z,3.07
2023-03-21T02:04:30.468Z,3.06
2023-03-21T02:07:53.922Z,3.03
2023-03-21T02:11:17.045Z,3.00
2023-03-21T02:14:40.906Z,3.06
2023-03-21T02:18:09.338Z,3.03
2023-03-21T02:22:12.885Z,2.98
2023-03-21T02:25:56.481Z,3.01
2023-03-21T02:29:38.528Z,2.88
2023-03-21T02:33:21.705Z,3.01
2023-03-21T02:36:53.282Z,2.99
2023-03-21T02:40:21.378Z,2.87
2023-03-21T02:43:48.703Z,2.95
2023-03-21T02:47:15.040Z,2.92
2023-03-21T02:50:42.014Z,2.86
2023-03-21T02:54:28.285Z,2.97
2023-03-21T02:57:54.308Z,2.92
2023-03-21T03:01:16.264Z,2.90
2023-03-21T03:04:38.398Z,2.83
2023-03-21T03:08:12.878Z,2.91
2023-03-21T03:11:38.511Z,2.88
2023-03-21T03:15:10.023Z,2.86
2023-03-21T03:18:40.011Z,2.86
2023-03-21T03:22:07.722Z,2.81
2023-03-21T03:25:42.846Z,2.82
2023-03-21T03:29:09.991Z,2.75
2023-03-21T03:32:37.293Z,2.84
2023-03-21T03:36:06.805Z,2.82
2023-03-21T03:39:34.460Z,2.79
2023-03-21T03:43:00.927Z,2.80
2023-03-21T03:46:29.899Z,2.79
2023-03-21T03:49:57.015Z,2.74
2023-03-21T03:53:24.094Z,2.75
2023-03-21T03:56:47.323Z,2.78
2023-03-21T04:00:13.119Z,2.75
2023-03-21T04:03:48.374Z,2.73
2023-03-21T04:07:12.189Z,2.67
2023-03-21T04:10:34.054Z,2.71
2023-03-21T04:13:55.715Z,2.68
2023-03-21T04:17:18.881Z,2.67
2023-03-21T04:20:45.197Z,2.71
2023-03-21T04:24:08.514Z,2.61
2023-03-21T04:27:30.548Z,2.72
2023-03-21T04:31:02.508Z,2.70
2023-03-21T04:34:28.911Z,2.72
2023-03-21T04:37:52.881Z,2.73
2023-03-21T04:41:15.110Z,2.72
2023-03-21T04:44:37.256Z,2.71
2023-03-21T04:47:59.464Z,2.70
2023-03-21T04:51:21.240Z,2.38
2023-03-21T04:54:44.711Z,2.66
2023-03-21T04:58:07.412Z,2.62
2023-03-21T05:01:30.826Z,2.65
2023-03-21T05:04:52.813Z,2.66
2023-03-21T05:08:15.642Z,2.62
2023-03-21T05:11:41.454Z,2.64
2023-03-21T05:15:03.095Z,2.63
2023-03-21T05:18:26.552Z,2.63
2023-03-21T05:21:48.998Z,2.61
2023-03-21T05:25:11.928Z,2.60
2023-03-21T05:28:37.003Z,2.61
2023-03-21T05:31:59.151Z,2.62
2023-03-21T05:35:21.117Z,2.44
2023-03-21T05:38:46.231Z,2.60
2023-03-21T05:42:08.302Z,2.58
2023-03-21T05:45:31.780Z,2.56
2023-03-21T05:48:53.866Z,2.54
2023-03-21T05:52:15.877Z,2.50
2023-03-21T05:55:38.484Z,2.47
2023-03-21T05:59:00.334Z,2.40
2023-03-21T06:02:23.791Z,2.31
2023-03-21T06:05:45.569Z,2.25
2023-03-21T06:09:08.512Z,2.19
2023-03-21T06:12:30.035Z,2.07
2023-03-21T06:15:51.838Z,2.17
2023-03-21T06:19:15.040Z,2.08
2023-03-21T06:22:37.653Z,2.12
2023-03-21T06:25:59.444Z,2.05
2023-03-21T06:29:21.185Z,1.97
2023-03-21T06:32:43.317Z,1.83
2023-03-21T06:36:06.950Z,1.96
2023-03-21T06:39:29.126Z,1.95
2023-03-21T06:42:50.665Z,1.75
2023-03-21T06:46:12.672Z,1.91
2023-03-21T06:49:34.537Z,1.94
2023-03-21T06:52:59.520Z,1.98
2023-03-21T06:56:21.406Z,1.96
2023-03-21T06:59:43.067Z,1.89
2023-03-21T07:03:04.806Z,1.94
2023-03-21T07:06:28.201Z,1.99
2023-03-21T07:09:51.436Z,2.01
2023-03-21T07:13:13.935Z,2.01
2023-03-21T07:16:35.851Z,1.97
2023-03-21T07:19:58.509Z,1.84
2023-03-21T07:23:21.812Z,1.90
2023-03-21T07:26:45.643Z,1.93
2023-03-21T07:30:08.580Z,1.91
2023-03-21T07:33:30.683Z,1.90
2023-03-21T07:36:52.433Z,1.86
2023-03-21T07:40:14.472Z,1.95
2023-03-21T07:43:39.172Z,2.02
2023-03-21T07:47:01.608Z,2.00
2023-03-21T07:50:23.498Z,2.06
2023-03-21T07:53:48.717Z,2.11
2023-03-21T07:57:13.135Z,2.06
2023-03-21T08:00:36.687Z,2.09
2023-03-21T08:03:58.594Z,2.15
2023-03-21T08:07:20.920Z,2.14
2023-03-21T08:10:44.105Z,2.24
2023-03-21T08:14:06.230Z,2.29
2023-03-21T08:17:29.703Z,2.29
2023-03-21T08:20:53.659Z,2.26
2023-03-21T08:24:15.662Z,2.31
2023-03-21T08:27:37.517Z,2.35
2023-03-21T08:30:59.493Z,2.45
2023-03-21T08:34:23.250Z,2.50
2023-03-21T08:37:45.448Z,2.52
2023-03-21T08:41:07.826Z,2.50
2023-03-21T08:44:29.681Z,2.54
2023-03-21T08:47:51.833Z,2.50
2023-03-21T08:51:15.402Z,2.58
2023-03-21T08:54:37.294Z,2.58
2023-03-21T08:57:59.481Z,2.53
2023-03-21T09:01:21.403Z,2.57
2023-03-21T09:04:43.907Z,2.53
2023-03-21T09:08:07.300Z,2.43
2023-03-21T09:11:29.162Z,2.42
2023-03-21T09:14:50.998Z,2.42
2023-03-21T09:18:16.461Z,2.51
2023-03-21T09:21:38.465Z,2.59
2023-03-21T09:25:08.486Z,2.58
2023-03-21T09:28:31.297Z,2.70
2023-03-21T09:31:54.546Z,2.70
2023-03-21T09:35:18.870Z,2.94
2023-03-21T09:38:40.825Z,3.04
2023-03-21T09:42:21.135Z,3.02
2023-03-21T09:45:52.662Z,3.05
2023-03-21T09:49:20.561Z,3.07
2023-03-21T09:52:48.267Z,3.01
2023-03-21T09:56:14.092Z,3.04
2023-03-21T09:59:40.494Z,3.00
2023-03-21T10:03:07.010Z,3.08
2023-03-21T10:06:30.682Z,3.09
2023-03-21T10:09:53.577Z,3.10
2023-03-21T10:13:20.754Z,3.17
2023-03-21T10:16:46.722Z,3.25
2023-03-21T10:20:15.584Z,3.29
2023-03-21T10:23:37.334Z,3.34
2023-03-21T10:26:59.366Z,3.37
2023-03-21T10:30:29.412Z,3.43
2023-03-21T10:33:54.136Z,3.43
2023-03-21T10:37:17.761Z,3.35
2023-03-21T10:40:39.765Z,3.36
2023-03-21T10:44:11.758Z,3.36
2023-03-21T10:47:35.405Z,3.36
2023-03-21T10:50:58.748Z,3.39
2023-03-21T10:54:23.512Z,3.40
2023-03-21T10:57:46.926Z,3.45
2023-03-21T11:01:14.946Z,3.55
2023-03-21T11:04:38.702Z,3.62
2023-03-21T11:08:05.425Z,3.60
2023-03-21T11:11:29.063Z,3.55
2023-03-21T11:14:51.618Z,3.38
2023-03-21T11:18:20.588Z,3.39
2023-03-21T11:21:42.537Z,3.42
2023-03-21T11:25:09.690Z,3.46
2023-03-21T11:28:37.987Z,3.55
2023-03-21T11:32:02.971Z,3.61
2023-03-21T11:35:26.740Z,3.72
2023-03-21T11:38:51.551Z,3.80
2023-03-21T11:42:29.790Z,3.63
2023-03-21T11:45:58.881Z,3.67
2023-03-21T11:49:21.484Z,3.66
2023-03-21T11:52:50.228Z,3.69
2023-03-21T11:56:26.052Z,3.76
2023-03-21T11:59:57.794Z,3.81
2023-03-21T12:03:49.375Z,3.85
2023-03-21T12:07:26.571Z,3.88
2023-03-21T12:10:56.567Z,3.78
2023-03-21T12:14:26.054Z,3.79
2023-03-21T12:17:59.825Z,3.89
2023-03-21T12:21:27.922Z,4.02
2023-03-21T12:24:55.018Z,3.97
2023-03-21T12:28:33.122Z,3.99
2023-03-21T12:32:12.314Z,4.04
2023-03-21T12:35:48.577Z,4.13
2023-03-21T12:39:22.303Z,4.13
2023-03-21T12:42:59.521Z,4.08
2023-03-21T12:46:28.692Z,3.99
2023-03-21T12:49:55.834Z,3.91
2023-03-21T12:53:31.181Z,3.94
2023-03-21T12:56:58.535Z,3.95
2023-03-21T13:00:24.167Z,3.97
2023-03-21T13:03:51.186Z,3.92
2023-03-21T13:07:20.233Z,3.85
2023-03-21T13:10:45.859Z,3.83
2023-03-21T13:14:16.414Z,3.82
2023-03-21T13:17:45.160Z,3.83
2023-03-21T13:21:15.201Z,3.90
2023-03-21T13:24:43.904Z,3.84
2023-03-21T13:28:07.275Z,3.68
2023-03-21T13:31:33.883Z,3.91
2023-03-21T13:35:14.552Z,3.99
2023-03-21T13:38:42.394Z,4.03
2023-03-21T13:42:07.046Z,4.06
2023-03-21T13:45:33.759Z,4.08
2023-03-21T13:49:01.191Z,4.05
2023-03-21T13:52:29.496Z,4.04
2023-03-21T13:56:11.483Z,4.06
2023-03-21T13:59:42.868Z,4.13
2023-03-21T14:03:14.595Z,4.13
2023-03-21T14:06:42.870Z,4.10
2023-03-21T14:10:07.972Z,4.20
2023-03-21T14:13:33.041Z,4.22
2023-03-21T14:16:57.109Z,4.22
2023-03-21T14:20:24.569Z,4.16
2023-03-21T14:23:46.597Z,4.12
2023-03-21T14:27:10.170Z,4.07
2023-03-21T14:30:35.448Z,4.11
2023-03-21T14:34:00.008Z,4.06
2023-03-21T14:37:32.457Z,4.10
2023-03-21T14:40:56.217Z,4.02
2023-03-21T14:44:25.605Z,4.06
2023-03-21T14:47:55.588Z,4.07
2023-03-21T14:51:17.496Z,4.06
2023-03-21T14:54:43.859Z,4.03
2023-03-21T14:58:06.791Z,4.04
2023-03-21T15:01:32.822Z,4.07
2023-03-21T15:04:58.105Z,4.10
2023-03-21T15:08:21.891Z,4.11
2023-03-21T15:11:51.647Z,4.08
2023-03-21T15:15:17.595Z,4.08
2023-03-21T15:18:42.031Z,4.10
2023-03-21T15:22:12.935Z,4.05
2023-03-21T15:25:37.822Z,4.07
2023-03-21T15:29:02.614Z,4.07
2023-03-21T15:32:27.561Z,4.00
2023-03-21T15:35:54.305Z,3.96
2023-03-21T15:39:19.994Z,3.90
2023-03-21T15:42:43.050Z,3.84
2023-03-21T15:46:15.335Z,3.79
2023-03-21T15:49:41.945Z,3.68
2023-03-21T15:53:07.145Z,3.70
2023-03-21T15:56:35.045Z,3.59
2023-03-21T16:00:00.690Z,3.45
2023-03-21T16:03:27.700Z,3.51
2023-03-21T16:06:55.199Z,3.43
2023-03-21T16:10:28.785Z,3.27
2023-03-21T16:13:51.176Z,3.17
2023-03-21T16:17:27.688Z,3.13
2023-03-21T16:20:51.083Z,3.02
2023-03-21T16:24:13.675Z,2.92
2023-03-21T16:27:35.761Z,2.78
2023-03-21T16:30:59.088Z,2.75
2023-03-21T16:34:20.884Z,2.69
2023-03-21T16:37:45.277Z,2.64
2023-03-21T16:41:10.780Z,2.56
2023-03-21T16:44:33.914Z,2.48
2023-03-21T16:47:56.238Z,2.33
2023-03-21T16:51:20.578Z,2.32
2023-03-21T16:54:44.442Z,2.23
2023-03-21T16:58:06.858Z,2.16
2023-03-21T17:01:30.198Z,1.90
2023-03-21T17:04:52.291Z,1.94
2023-03-21T17:08:17.004Z,1.96
2023-03-21T17:11:41.824Z,1.87
2023-03-21T17:15:04.039Z,1.74
2023-03-21T17:18:25.968Z,1.72
2023-03-21T17:21:47.943Z,1.66
2023-03-21T17:25:09.985Z,1.61
2023-03-21T17:28:33.216Z,1.56
2023-03-21T17:31:55.102Z,1.50
2023-03-21T17:35:17.799Z,1.40
2023-03-21T17:38:39.504Z,1.41
2023-03-21T17:42:01.183Z,1.31
2023-03-21T17:45:24.958Z,1.19
2023-03-21T17:48:47.329Z,1.24
2023-03-21T17:52:09.160Z,1.20
2023-03-21T17:55:31.549Z,1.11
2023-03-21T17:58:53.387Z,1.12
2023-03-21T18:02:18.418Z,1.08
2023-03-21T18:05:40.660Z,0.93
2023-03-21T18:09:08.067Z,0.93
2023-03-21T18:12:29.861Z,0.98
2023-03-21T18:15:52.988Z,0.96
2023-03-21T18:19:16.467Z,0.86
2023-03-21T18:22:38.325Z,0.89
2023-03-21T18:26:00.707Z,0.83
2023-03-21T18:33:05.021Z,0.69
2023-03-21T18:36:29.142Z,0.68
2023-03-21T18:39:50.773Z,0.62
2023-03-21T18:44:00.453Z,0.54
2023-03-21T18:46:54.788Z,0.51
2023-03-21T18:50:16.801Z,0.41
2023-03-21T18:53:40.248Z,0.33
2023-03-21T19:00:44.825Z,0.30
2023-03-21T19:04:20.788Z,0.22
2023-03-21T19:07:44.743Z,0.26
2023-03-21T19:11:09.282Z,0.10
2023-03-21T19:14:31.232Z,0.15
2023-03-21T19:21:36.958Z,0.05
2023-03-21T19:24:58.980Z,0.07
2023-03-21T19:28:21.971Z,0.01
2023-03-21T19:31:45.878Z,0.01
2023-03-21T19:35:08.137Z,-0.01
2023-03-21T19:38:30.060Z,-0.03
2023-03-21T19:41:55.345Z,-0.06
2023-03-21T19:45:25.065Z,-0.03
2023-03-21T19:48:47.816Z,-0.03
2023-03-21T19:52:10.151Z,-0.11
2023-03-21T19:55:32.436Z,-0.06
2023-03-21T19:58:54.224Z,-0.08
2023-03-21T20:02:34.676Z,-0.10
2023-03-21T20:06:04.291Z,-0.15
2023-03-21T20:09:53.795Z,-0.13
2023-03-21T20:13:08.239Z,-0.22
2023-03-21T20:16:34.757Z,-0.19
2023-03-21T20:20:00.102Z,-0.16
2023-03-21T20:23:22.531Z,-0.15
2023-03-21T20:26:45.263Z,-0.14
2023-03-21T20:30:10.732Z,-0.18
2023-03-21T20:33:33.567Z,-0.12
2023-03-21T20:36:58.176Z,-0.11
2023-03-21T20:40:21.728Z,-0.11
2023-03-21T20:44:39.251Z,-0.12
2023-03-21T20:47:25.484Z,-0.15
2023-03-21T20:50:47.272Z,-0.11
2023-03-21T20:54:11.342Z,-0.30
2023-03-21T20:57:34.268Z,-0.11
2023-03-21T21:00:59.450Z,-0.09
2023-03-21T21:04:22.836Z,-0.19
2023-03-21T21:07:46.154Z,-0.09
2023-03-21T21:12:02.541Z,-0.11
2023-03-21T21:14:51.252Z,-0.12
2023-03-21T21:18:13.526Z,-0.12
2023-03-21T21:21:35.386Z,-0.12
2023-03-21T21:24:57.205Z,-0.13
2023-03-21T21:28:21.384Z,-0.12
2023-03-21T21:31:44.595Z,-0.13
2023-03-21T21:35:09.981Z,-0.13
2023-03-21T21:38:34.851Z,-0.16
2023-03-21T21:41:56.749Z,-0.26
2023-03-21T21:45:20.282Z,-0.17
2023-03-21T21:48:42.755Z,-0.17
2023-03-21T21:52:06.165Z,-0.15
2023-03-21T21:55:27.897Z,-0.15
2023-03-21T21:58:53.362Z,-0.15
2023-03-21T22:02:17.062Z,-0.15
2023-03-21T22:05:39.449Z,-0.22
2023-03-21T22:09:01.201Z,-0.17
2023-03-21T22:12:23.243Z,-0.19
2023-03-21T22:15:46.952Z,-0.31
2023-03-21T22:19:10.520Z,-0.22
2023-03-21T22:22:32.158Z,-0.22
2023-03-21T22:25:54.314Z,-0.24
2023-03-21T22:29:16.298Z,-0.26
2023-03-21T22:32:39.759Z,-0.26
2023-03-21T22:36:03.041Z,-0.27
2023-03-21T22:39:26.533Z,-0.24
2023-03-21T22:42:48.373Z,-0.30
2023-03-21T22:46:10.494Z,-0.22
2023-03-21T22:49:33.076Z,-0.27
2023-03-21T22:52:56.592Z,-0.19
2023-03-21T22:56:19.173Z,-0.17
2023-03-21T22:59:41.295Z,-0.17
2023-03-21T23:03:03.465Z,-0.14
2023-03-21T23:06:25.389Z,-0.13
2023-03-21T23:09:48.847Z,-0.15
2023-03-21T23:13:11.525Z,-0.13
2023-03-21T23:16:34.901Z,-0.13
2023-03-21T23:19:56.517Z,-0.11
2023-03-21T23:23:18.389Z,-0.07
2023-03-21T23:26:41.637Z,-0.05
2023-03-21T23:30:05.064Z,-0.04
2023-03-21T23:33:27.148Z,-0.08
2023-03-21T23:36:48.717Z,-0.06
2023-03-21T23:40:12.695Z,-0.05
2023-03-21T23:43:36.363Z,-0.07
2023-03-21T23:46:58.438Z,-0.04
2023-03-21T23:50:20.338Z,-0.06
2023-03-21T23:53:42.506Z,-0.04
2023-03-21T23:57:04.739Z,-0.06
